首页
METAR-TAF:

METAR-TAF

机场 :

成吉思汗國際機場

乌兰巴托, 蒙古国

纬度: 47-55N, 经度: 106-52E, 海拔: 1306米

当前天气观测

该预报发布于28分钟前的17:30 UTC
风速6节,风向
温度 13°C
湿度 82%
气压 1008 hPa
能见度10公里或以上
多云层高于3300英尺

METAR: ZMUB 231730Z 35003MPS 9999 BKN033 13/10 Q1008 R14140095 NOSIG RMK QFE649.8 82 NT

时间: 02:58 (17:58 UTC)

预报

该预报发布于1小时和18分钟前的16:40 UTC
预报有效从23日的 18点(UTC)到 24日的 24点(UTC)
风速4节,风向多变
能见度10公里或以上
散云层高于3300英尺
散云层高于10000英尺
成为
从 24日的 01点(UTC)到 24日的 03点(UTC)
风速12节,风向北转西北
少量云层高于3000英尺, 积雨云.
散云层高于3300英尺
成为
从 24日的 10点(UTC)到 24日的 12点(UTC)
风速4节,风向多变
几率 30% :
短暂存在
从 24日的 14点(UTC)到 24日的 24点(UTC)
风速16节,风向多变
散云层高于3000英尺, 积雨云.
散云层高于3300英尺
雷暴, 小阵雨

TAF: ZMUB 231640Z 2318/2424 VRB02MPS 9999 SCT033 SCT100 TN10/2321Z TX22/2407Z BECMG 2401/2403 34006MPS FEW030CB SCT033 BECMG 2410/2412 VRB02MPS PROB30 TEMPO 2414/2424 VRB08MPS TS -SHRA SCT030CB SCT033

超过4000个机场的气象观测和天气预报(METAR&TAF报告)。

可查询的气象台以黄色和红色小点在地图上表示。

将鼠标移到小点上方,可查看气象台名称。

然后点击查看天气观测和预报。

如需切换地图:点击带黑十字的绿色按钮放大地图;点击带横线的绿色按钮缩小地图;或者点击绿色箭头查看邻近地区的地图。


METAR-TAF: